Time;durP1;ratioP1;P1;durP2;ratioP2;P2;SDS_P1;SDS_P2;PMS_P1;PMS_P2;Temp;Humidity;BMP_temperature;BMP_pressure;BME280_temperature;BME280_humidity;BME280_pressure;Samples;Min_cycle;Max_cycle;Signal;HPM_P1;HPM_P2
2022/11/08 00:02:43;;;;;;;;;;;;;;;17.12;42.10;99634.13;4466554;32;34951;-90
2022/11/08 00:16:21;;;;;;;;;;;;;;;16.99;42.50;99629.81;4467854;32;33452;-88
2022/11/08 00:18:49;;;;;;;;;;;;;;;17.05;42.39;99632.44;4467833;32;34131;-89
2022/11/08 00:21:17;;;;;;;;;;;;;;;17.05;42.39;99636.78;4480368;32;34855;-90
2022/11/08 00:23:45;;;;;;;;;;;;;;;17.05;42.42;99631.53;4470484;32;34583;-86
2022/11/08 00:26:14;;;;;;;;;;;;;;;16.99;42.59;99638.56;4467060;32;33464;-86
2022/11/08 00:28:41;;;;;;;;;;;;;;;17.05;42.49;99637.66;4467763;32;34583;-86
2022/11/08 00:31:09;;;;;;;;;;;;;;;17.08;42.37;99639.38;4467776;32;33498;-86
2022/11/08 00:33:36;;;;;;;;;;;;;;;17.09;42.31;99633.28;4468064;32;35031;-89
2022/11/08 00:36:03;;;;;;;;;;;;;;;17.11;42.18;99634.13;4453618;32;34096;-89
2022/11/08 00:38:30;;;;;;;;;;;;;;;17.06;42.20;99631.53;4467719;32;34120;-90
2022/11/08 00:40:58;;;;;;;;;;;;;;;17.10;42.11;99635.00;4467600;32;34590;-87
2022/11/08 00:43:25;;;;;;;;;;;;;;;17.09;42.01;99639.38;4467643;32;34559;-87
2022/11/08 00:45:52;;;;;;;;;;;;;;;17.09;41.90;99633.28;4467561;32;33175;-86
2022/11/08 00:48:19;;;;;;;;;;;;;;;17.08;41.95;99637.63;4467514;32;34201;-87
2022/11/08 00:50:47;;;;;;;;;;;;;;;16.97;42.18;99624.62;4467624;32;34199;-89
2022/11/08 00:53:14;;;;;;;;;;;;;;;16.96;42.24;99629.84;4467518;32;34556;-88
2022/11/08 00:55:41;;;;;;;;;;;;;;;16.91;42.33;99632.50;4466945;32;33668;-86
2022/11/08 00:58:10;;;;;;;;;;;;;;;16.94;42.28;99624.62;4466681;32;34452;-86
2022/11/08 01:00:37;;;;;;;;;;;;;;;16.81;42.65;99625.56;4473953;32;34363;-88
2022/11/08 01:03:20;;;;;;;;;;;;;;;16.92;42.47;99623.75;4468777;32;34189;-86
2022/11/08 01:05:47;;;;;;;;;;;;;;;16.93;42.42;99622.91;4461676;32;33836;-86
2022/11/08 01:08:15;;;;;;;;;;;;;;;16.90;42.50;99619.41;4467395;32;34239;-87
2022/11/08 01:10:43;;;;;;;;;;;;;;;16.81;42.58;99625.56;4462702;32;34238;-86
2022/11/08 01:13:11;;;;;;;;;;;;;;;16.86;42.60;99631.66;4464105;32;35239;-85
2022/11/08 01:15:39;;;;;;;;;;;;;;;16.91;42.50;99624.62;4453097;32;34330;-88
2022/11/08 01:18:07;;;;;;;;;;;;;;;16.94;42.39;99624.62;4467299;32;34228;-88
2022/11/08 01:20:40;;;;;;;;;;;;;;;16.97;42.33;99623.72;4467531;32;34403;-87
2022/11/08 01:23:07;;;;;;;;;;;;;;;16.94;42.32;99619.37;4453158;32;34027;-88
2022/11/08 01:25:36;;;;;;;;;;;;;;;16.94;42.26;99615.91;4467798;32;33532;-86
2022/11/08 01:28:03;;;;;;;;;;;;;;;16.96;42.19;99621.97;4453175;32;33792;-86
2022/11/08 01:30:30;;;;;;;;;;;;;;;16.94;42.16;99619.37;4467277;32;33977;-89
2022/11/08 01:33:00;;;;;;;;;;;;;;;16.90;42.18;99619.41;4466969;32;34510;-87
2022/11/08 01:35:29;;;;;;;;;;;;;;;16.86;41.95;99615.94;4467359;32;33621;-86
2022/11/08 01:37:56;;;;;;;;;;;;;;;16.91;41.94;99622.03;4467019;32;33883;-88
2022/11/08 01:40:24;;;;;;;;;;;;;;;16.92;41.95;99621.13;4473887;32;35254;-87
2022/11/08 01:42:51;;;;;;;;;;;;;;;16.92;41.72;99621.13;4468325;32;35231;-89
2022/11/08 01:45:37;;;;;;;;;;;;;;;16.88;41.57;99614.16;4482697;32;33638;-86
2022/11/08 01:48:04;;;;;;;;;;;;;;;16.88;41.54;99615.94;4437436;32;35596;-88
2022/11/08 01:50:32;;;;;;;;;;;;;;;16.82;41.66;99610.72;4467005;32;34404;-89
2022/11/08 01:52:59;;;;;;;;;;;;;;;16.81;41.77;99616.84;4468019;32;34476;-88
2022/11/08 01:55:29;;;;;;;;;;;;;;;16.83;41.85;99613.34;4482677;32;33836;-87
2022/11/08 01:57:56;;;;;;;;;;;;;;;16.81;41.92;99611.59;4452948;32;34152;-85
2022/11/08 02:00:24;;;;;;;;;;;;;;;16.85;42.00;99614.19;4473264;32;34188;-87
2022/11/08 02:02:55;;;;;;;;;;;;;;;16.87;41.90;99609.81;4481386;32;35263;-88
2022/11/08 02:05:25;;;;;;;;;;;;;;;16.88;41.82;99606.31;4452328;32;33998;-85
2022/11/08 02:07:54;;;;;;;;;;;;;;;16.83;41.79;99602.00;4452257;32;35093;-86
2022/11/08 02:10:22;;;;;;;;;;;;;;;16.84;41.82;99604.59;4468664;32;35141;-86
2022/11/08 02:12:49;;;;;;;;;;;;;;;16.81;41.94;99599.38;4452637;32;34160;-88
2022/11/08 02:15:17;;;;;;;;;;;;;;;16.83;42.05;99591.53;4452147;32;33504;-88
2022/11/08 02:17:44;;;;;;;;;;;;;;;16.87;41.86;99596.72;4455582;32;34066;-86
2022/11/08 02:20:11;;;;;;;;;;;;;;;16.87;41.67;99601.09;4470323;32;34578;-87
2022/11/08 02:22:40;;;;;;;;;;;;;;;16.89;41.64;99602.81;4440413;32;35315;-89
2022/11/08 02:25:07;;;;;;;;;;;;;;;16.85;41.74;99603.72;4450711;32;32979;-86
2022/11/08 02:27:35;;;;;;;;;;;;;;;16.84;41.71;99596.75;4474635;32;33841;-86
2022/11/08 02:30:03;;;;;;;;;;;;;;;16.86;41.48;99597.63;4479884;32;33887;-89
2022/11/08 02:32:37;;;;;;;;;;;;;;;16.82;41.22;99598.50;4468581;32;34582;-86
2022/11/08 02:35:05;;;;;;;;;;;;;;;16.75;41.30;99600.28;4454338;32;33479;-87
2022/11/08 02:37:32;;;;;;;;;;;;;;;16.60;41.74;99592.47;4456774;32;33970;-88
2022/11/08 02:39:59;;;;;;;;;;;;;;;16.72;41.62;99596.78;4468296;32;35289;-86
2022/11/08 02:42:26;;;;;;;;;;;;;;;16.68;41.78;99597.69;4467968;32;35141;-87
2022/11/08 02:44:53;;;;;;;;;;;;;;;16.72;41.62;99597.66;4468297;32;33196;-86
2022/11/08 02:47:23;;;;;;;;;;;;;;;16.72;41.35;99597.66;4471159;32;34176;-88
2022/11/08 02:49:50;;;;;;;;;;;;;;;16.63;41.55;99602.03;4468240;32;35201;-85
2022/11/08 02:52:17;;;;;;;;;;;;;;;16.63;41.60;99600.31;4467902;32;35048;-86
2022/11/08 02:54:44;;;;;;;;;;;;;;;16.52;41.75;99603.00;4467881;32;34372;-86
2022/11/08 02:57:12;;;;;;;;;;;;;;;16.47;41.83;99604.72;4453753;32;34246;-85
2022/11/08 02:59:39;;;;;;;;;;;;;;;16.61;41.68;99609.06;4467985;32;34199;-88
2022/11/08 03:02:06;;;;;;;;;;;;;;;16.64;41.69;99609.03;4467349;32;35282;-84
2022/11/08 03:04:33;;;;;;;;;;;;;;;16.58;41.66;99611.69;4467481;32;32313;-85
2022/11/08 03:07:01;;;;;;;;;;;;;;;16.64;41.53;99603.81;4477166;32;35039;-89
2022/11/08 03:09:28;;;;;;;;;;;;;;;16.65;41.47;99605.53;4468230;32;34099;-85
2022/11/08 03:27:14;;;;;;;;;;;;;;;16.38;41.43;99612.63;4463625;32;34402;-86
2022/11/08 03:29:41;;;;;;;;;;;;;;;16.32;41.65;99607.41;4468152;32;35007;-90
2022/11/08 03:32:08;;;;;;;;;;;;;;;16.41;41.39;99611.75;4467637;32;34802;-85
2022/11/08 03:34:35;;;;;;;;;;;;;;;16.43;41.06;99610.00;4468094;32;34958;-85
2022/11/08 03:37:06;;;;;;;;;;;;;;;16.35;40.99;99614.38;4467550;32;33557;-88
2022/11/08 03:39:33;;;;;;;;;;;;;;;16.29;41.12;99618.78;4453663;32;34202;-88
2022/11/08 03:42:02;;;;;;;;;;;;;;;16.27;41.24;99611.78;4467968;32;34395;-85
2022/11/08 03:44:29;;;;;;;;;;;;;;;16.16;41.43;99618.81;4467759;32;35068;-85
2022/11/08 03:46:57;;;;;;;;;;;;;;;16.23;41.22;99613.56;4453735;32;33384;-84
2022/11/08 03:49:25;;;;;;;;;;;;;;;16.17;41.18;99618.78;4470789;32;34148;-89
2022/11/08 03:51:53;;;;;;;;;;;;;;;16.04;41.09;99619.72;4483740;32;34353;-85
2022/11/08 03:54:20;;;;;;;;;;;;;;;15.98;41.21;99619.72;4483262;32;33913;-87
2022/11/08 03:56:47;;;;;;;;;;;;;;;16.04;41.17;99617.09;4453432;32;33181;-85
2022/11/08 03:59:14;;;;;;;;;;;;;;;16.03;41.28;99621.47;4467684;32;34967;-84
2022/11/08 04:01:41;;;;;;;;;;;;;;;16.18;40.93;99622.31;4459557;32;34181;-85
2022/11/08 04:04:09;;;;;;;;;;;;;;;16.10;41.11;99618.81;4483317;32;34270;-86
2022/11/08 04:06:36;;;;;;;;;;;;;;;16.08;41.11;99618.81;4468666;32;34534;-86
2022/11/08 04:09:03;;;;;;;;;;;;;;;15.96;41.37;99619.72;4468082;32;33709;-86
2022/11/08 04:17:05;;;;;;;;;;;;;;;15.92;41.91;99614.50;4452346;32;33763;-88
2022/11/08 04:22:18;;;;;;;;;;;;;;;15.94;42.23;99616.22;4464040;32;34180;-86
2022/11/08 04:24:45;;;;;;;;;;;;;;;16.06;42.47;99610.09;4467729;32;34072;-86
2022/11/08 04:27:12;;;;;;;;;;;;;;;16.23;42.27;99612.69;4468181;32;33335;-85
2022/11/08 04:29:40;;;;;;;;;;;;;;;16.18;42.47;99612.72;4467887;32;33648;-85
2022/11/08 04:32:07;;;;;;;;;;;;;;;16.19;42.63;99611.81;4467425;32;33826;-86
2022/11/08 04:34:34;;;;;;;;;;;;;;;16.15;42.72;99609.22;4454830;32;34047;-84
2022/11/08 04:37:03;;;;;;;;;;;;;;;16.23;42.51;99602.22;4467668;32;33084;-88
2022/11/08 04:39:30;;;;;;;;;;;;;;;16.23;42.40;99604.84;4470243;32;33831;-84
2022/11/08 04:41:57;;;;;;;;;;;;;;;16.12;42.89;99604.00;4483612;32;34026;-86
2022/11/08 04:44:28;;;;;;;;;;;;;;;16.07;43.23;99601.41;4483427;32;34306;-87
2022/11/08 04:46:55;;;;;;;;;;;;;;;15.64;44.06;99600.53;4467242;32;34335;-88
2022/11/08 04:49:23;;;;;;;;;;;;;;;15.92;43.47;99602.31;4466760;32;34016;-87
2022/11/08 04:51:50;;;;;;;;;;;;;;;15.91;43.51;99600.56;4467924;32;35015;-87
2022/11/08 04:54:17;;;;;;;;;;;;;;;15.75;43.55;99599.69;4467179;32;34252;-86
2022/11/08 04:56:44;;;;;;;;;;;;;;;15.79;43.48;99600.56;4466649;32;35117;-89
2022/11/08 04:59:12;;;;;;;;;;;;;;;15.50;44.14;99596.22;4472130;32;33853;-86
2022/11/08 05:01:39;;;;;;;;;;;;;;;15.57;43.95;99595.34;4466047;32;33770;-85
2022/11/08 05:04:06;;;;;;;;;;;;;;;15.72;43.47;99591.88;4468510;32;34217;-89
2022/11/08 05:06:33;;;;;;;;;;;;;;;15.50;44.15;99598.84;4472982;32;33381;-86
2022/11/08 05:09:01;;;;;;;;;;;;;;;15.40;44.55;99604.91;4466512;32;33960;-88
2022/11/08 05:11:28;;;;;;;;;;;;;;;15.59;44.45;99597.94;4466502;32;35219;-86
2022/11/08 05:13:56;;;;;;;;;;;;;;;15.81;44.07;99604.06;4467430;32;34439;-86
2022/11/08 05:16:24;;;;;;;;;;;;;;;15.98;43.76;99597.03;4467218;32;33476;-86
2022/11/08 05:18:51;;;;;;;;;;;;;;;16.16;43.39;99601.38;4466288;32;35164;-86
2022/11/08 05:24:06;;;;;;;;;;;;;;;15.67;43.48;99611.03;4447234;32;35145;-90
2022/11/08 05:26:34;;;;;;;;;;;;;;;14.63;45.73;99616.97;4466145;32;33548;-89
2022/11/08 05:29:01;;;;;;;;;;;;;;;13.71;47.28;99625.97;4466779;32;34349;-86
2022/11/08 05:31:28;;;;;;;;;;;;;;;14.01;46.56;99622.69;4465776;32;34484;-86
2022/11/08 05:33:55;;;;;;;;;;;;;;;14.65;45.12;99624.78;4465508;32;34724;-86
2022/11/08 05:36:23;;;;;;;;;;;;;;;14.97;44.32;99623.16;4475511;32;34143;-89
2022/11/08 05:38:50;;;;;;;;;;;;;;;14.93;44.42;99620.53;4465587;32;34453;-86
2022/11/08 05:41:18;;;;;;;;;;;;;;;15.11;44.09;99631.00;4466923;32;34967;-86
2022/11/08 05:43:46;;;;;;;;;;;;;;;15.03;44.58;99628.37;4479696;32;34270;-88
2022/11/08 05:46:13;;;;;;;;;;;;;;;15.47;43.65;99624.97;4459235;32;33633;-84
2022/11/08 05:48:42;;;;;;;;;;;;;;;15.59;43.61;99629.31;4452741;32;34032;-84
2022/11/08 05:51:10;;;;;;;;;;;;;;;15.72;43.48;99622.34;4452755;32;33896;-84
2022/11/08 05:53:38;;;;;;;;;;;;;;;15.80;43.45;99624.12;4478444;32;34262;-86
2022/11/08 05:56:06;;;;;;;;;;;;;;;15.71;43.84;99624.09;4453790;32;33484;-86
2022/11/08 05:58:33;;;;;;;;;;;;;;;15.72;43.97;99624.97;4451423;32;34483;-87
2022/11/08 06:01:02;;;;;;;;;;;;;;;15.98;43.16;99631.03;4455277;32;34323;-85
2022/11/08 06:03:30;;;;;;;;;;;;;;;15.72;43.69;99622.34;4468623;32;35263;-85
2022/11/08 06:06:05;;;;;;;;;;;;;;;15.55;43.90;99623.22;4469144;32;33224;-86
2022/11/08 06:08:32;;;;;;;;;;;;;;;14.66;45.49;99623.91;4468813;32;34727;-84
2022/11/08 06:11:02;;;;;;;;;;;;;;;15.03;44.26;99620.53;4468460;32;34475;-85
2022/11/08 06:13:29;;;;;;;;;;;;;;;15.01;44.14;99629.25;4468641;32;34274;-85
2022/11/08 06:16:04;;;;;;;;;;;;;;;14.95;44.24;99630.09;4468890;32;33530;-87
2022/11/08 06:18:32;;;;;;;;;;;;;;;15.21;43.79;99631.91;4468338;32;33958;-88
2022/11/08 06:21:00;;;;;;;;;;;;;;;15.37;43.38;99632.78;4454711;32;35136;-85
2022/11/08 06:23:27;;;;;;;;;;;;;;;14.96;44.61;99637.06;4454933;32;34449;-88
2022/11/08 06:25:55;;;;;;;;;;;;;;;15.51;43.40;99633.66;4454472;32;33347;-88
2022/11/08 06:28:22;;;;;;;;;;;;;;;15.38;43.93;99648.47;4468802;32;34183;-88
2022/11/08 06:30:50;;;;;;;;;;;;;;;15.30;44.48;99647.56;4474099;32;35572;-87
2022/11/08 06:33:17;;;;;;;;;;;;;;;15.49;44.09;99649.34;4468265;32;34058;-85
2022/11/08 06:35:45;;;;;;;;;;;;;;;15.05;44.97;99644.94;4457271;32;33516;-86
2022/11/08 06:38:12;;;;;;;;;;;;;;;15.15;45.07;99639.72;4464986;32;34067;-84
2022/11/08 06:40:40;;;;;;;;;;;;;;;15.00;45.23;99644.06;4466034;32;34018;-85
2022/11/08 06:43:08;;;;;;;;;;;;;;;15.29;44.60;99638.88;4468278;32;35084;-87
2022/11/08 06:45:44;;;;;;;;;;;;;;;15.29;44.86;99644.09;4455548;32;33651;-86
2022/11/08 06:48:11;;;;;;;;;;;;;;;14.94;45.80;99645.78;4468581;32;35077;-87
2022/11/08 06:50:38;;;;;;;;;;;;;;;14.40;47.56;99648.16;4468060;32;34064;-84
2022/11/08 06:53:06;;;;;;;;;;;;;;;14.70;46.68;99650.06;4448921;32;34461;-88
2022/11/08 06:55:34;;;;;;;;;;;;;;;14.40;47.08;99652.50;4450755;32;34166;-87
2022/11/08 06:58:01;;;;;;;;;;;;;;;13.36;49.30;99668.22;4468247;32;34243;-86
2022/11/08 07:00:28;;;;;;;;;;;;;;;13.25;49.67;99664.66;4452203;32;35242;-85
2022/11/08 07:02:56;;;;;;;;;;;;;;;13.55;49.29;99666.66;4462732;32;35724;-86
2022/11/08 07:05:24;;;;;;;;;;;;;;;13.24;50.45;99668.13;4448908;32;34718;-84
2022/11/08 07:07:52;;;;;;;;;;;;;;;13.81;48.93;99670.34;4448433;32;33974;-84
2022/11/08 07:10:20;;;;;;;;;;;;;;;13.93;48.67;99669.56;4449110;32;34570;-83
2022/11/08 07:12:47;;;;;;;;;;;;;;;14.55;47.40;99663.03;4464696;32;34427;-85
2022/11/08 07:15:15;;;;;;;;;;;;;;;14.75;47.14;99663.97;4449088;32;33317;-85
2022/11/08 07:17:42;;;;;;;;;;;;;;;15.10;46.59;99665.81;4462111;32;34636;-87
2022/11/08 07:20:09;;;;;;;;;;;;;;;14.79;47.24;99667.47;4462593;32;35416;-85
2022/11/08 07:22:38;;;;;;;;;;;;;;;15.01;46.80;99658.84;4463225;32;33788;-89
2022/11/08 07:25:06;;;;;;;;;;;;;;;15.61;45.77;99661.56;4463261;32;33082;-85
2022/11/08 07:27:33;;;;;;;;;;;;;;;15.49;46.34;99667.66;4462793;32;33871;-84
2022/11/08 07:30:00;;;;;;;;;;;;;;;15.75;45.85;99662.44;4464688;32;34552;-83
2022/11/08 07:32:28;;;;;;;;;;;;;;;14.93;46.91;99665.78;4465160;32;34325;-83
2022/11/08 07:34:55;;;;;;;;;;;;;;;13.86;50.19;99676.50;4462679;32;33419;-86
2022/11/08 07:37:22;;;;;;;;;;;;;;;14.47;48.82;99678.63;4463356;32;34209;-87
2022/11/08 07:39:50;;;;;;;;;;;;;;;14.61;47.94;99670.88;4463248;32;35196;-87
2022/11/08 07:42:17;;;;;;;;;;;;;;;13.71;50.82;99680.69;4462649;32;35138;-86
2022/11/08 07:44:44;;;;;;;;;;;;;;;14.69;48.91;99673.50;4467296;32;33481;-85
2022/11/08 07:47:12;;;;;;;;;;;;;;;14.23;50.16;99686.28;4467577;32;34200;-87
2022/11/08 07:49:39;;;;;;;;;;;;;;;13.55;52.00;99687.50;4467530;32;34322;-87
2022/11/08 07:52:11;;;;;;;;;;;;;;;12.88;53.65;99682.47;4471716;32;35471;-88
2022/11/08 07:55:07;;;;;;;;;;;;;;;13.71;51.89;99686.75;4483042;32;32823;-86
2022/11/08 07:57:39;;;;;;;;;;;;;;;14.45;49.80;99685.56;4480211;32;34315;-85
2022/11/08 08:00:18;;;;;;;;;;;;;;;14.82;48.71;99680.53;4469879;32;35133;-86
2022/11/08 08:03:12;;;;;;;;;;;;;;;13.82;51.94;99681.66;4483294;31;34236;-87
2022/11/08 08:05:42;;;;;;;;;;;;;;;13.63;53.01;99686.69;4469345;32;34186;-86
2022/11/08 08:08:25;;;;;;;;;;;;;;;14.24;51.39;99691.50;4467603;32;34143;-86
2022/11/08 08:11:02;;;;;;;;;;;;;;;14.97;49.61;99683.22;4467620;32;34412;-85
2022/11/08 08:13:48;;;;;;;;;;;;;;;15.48;49.03;99683.31;4467450;32;34607;-84
2022/11/08 08:16:35;;;;;;;;;;;;;;;15.39;49.54;99681.56;4452324;32;34292;-89
2022/11/08 08:19:27;;;;;;;;;;;;;;;15.32;49.64;99685.03;4451957;32;34652;-91
2022/11/08 08:21:54;;;;;;;;;;;;;;;14.44;51.56;99690.78;4467539;32;36449;-88
2022/11/08 08:24:25;;;;;;;;;;;;;;;14.81;50.57;99684.00;4466637;32;34217;-86
2022/11/08 08:27:10;;;;;;;;;;;;;;;14.48;51.70;99684.72;4467848;32;33573;-86
2022/11/08 08:29:39;;;;;;;;;;;;;;;15.04;50.57;99681.50;4468023;32;34357;-89
2022/11/08 08:32:25;;;;;;;;;;;;;;;15.18;50.58;99689.34;4468087;32;34205;-86
2022/11/08 08:34:58;;;;;;;;;;;;;;;15.18;51.08;99673.69;4467982;32;34080;-87
2022/11/08 08:37:25;;;;;;;;;;;;;;;14.80;52.25;99677.03;4467345;32;34207;-86
2022/11/08 08:40:11;;;;;;;;;;;;;;;15.01;52.01;99682.34;4467631;32;35079;-86
2022/11/08 08:44:03;;;;;;;;;;;;;;;14.92;52.35;99681.44;4516739;31;810612;-89
2022/11/08 08:46:56;;;;;;;;;;;;;;;13.61;56.40;99703.19;4527102;31;32882;-89
2022/11/08 08:49:23;;;;;;;;;;;;;;;15.02;52.12;99691.06;4527594;31;34552;-89
2022/11/08 08:51:56;;;;;;;;;;;;;;;15.06;51.78;99692.81;4528788;31;34020;-87
2022/11/08 08:54:46;;;;;;;;;;;;;;;15.52;50.63;99685.91;4525037;31;34216;-88
2022/11/08 08:57:15;;;;;;;;;;;;;;;15.08;51.60;99693.69;4526823;31;33419;-87
2022/11/08 08:59:43;;;;;;;;;;;;;;;15.16;51.90;99698.94;4526944;31;34351;-90
2022/11/08 09:02:37;;;;;;;;;;;;;;;14.35;54.23;99702.00;4524056;31;34315;-90
2022/11/08 09:05:11;;;;;;;;;;;;;;;14.83;53.09;99703.16;4509869;31;34853;-89
2022/11/08 09:07:41;;;;;;;;;;;;;;;14.55;53.63;99703.03;4509510;31;33560;-87
2022/11/08 09:10:17;;;;;;;;;;;;;;;14.79;53.52;99704.88;4509561;31;33957;-87
2022/11/08 09:12:44;;;;;;;;;;;;;;;15.03;52.96;99700.62;4509539;31;34139;-88
2022/11/08 09:15:12;;;;;;;;;;;;;;;14.98;53.29;99698.00;4510811;31;33987;-89
2022/11/08 09:17:39;;;;;;;;;;;;;;;15.09;52.47;99713.72;4511209;31;33129;-91
2022/11/08 09:20:06;;;;;;;;;;;;;;;13.52;57.03;99714.38;4510934;31;34294;-91
2022/11/08 09:22:34;;;;;;;;;;;;;;;13.66;57.06;99724.06;4496688;31;34384;-88
2022/11/08 09:25:01;;;;;;;;;;;;;;;12.87;59.31;99732.72;4510863;31;34434;-90
2022/11/08 09:27:29;;;;;;;;;;;;;;;14.98;52.95;99731.94;4510849;31;33129;-87
2022/11/08 09:29:56;;;;;;;;;;;;;;;15.21;52.81;99720.72;4510837;31;34345;-87
2022/11/08 09:32:24;;;;;;;;;;;;;;;15.58;52.30;99722.53;4511063;31;34313;-87
2022/11/08 09:35:11;;;;;;;;;;;;;;;15.61;52.47;99721.66;4498686;31;34844;-87
2022/11/08 09:37:38;;;;;;;;;;;;;;;16.38;50.61;99719.91;4510552;31;33923;-90
2022/11/08 09:40:09;;;;;;;;;;;;;;;15.52;51.93;99714.66;4510746;31;34853;-87
2022/11/08 09:42:56;;;;;;;;;;;;;;;15.95;51.03;99713.88;4509375;31;35038;-88
2022/11/08 09:45:28;;;;;;;;;;;;;;;16.94;48.86;99703.19;4509316;31;33958;-90
2022/11/08 09:47:58;;;;;;;;;;;;;;;16.33;50.41;99710.31;4509378;31;33361;-89
2022/11/08 09:50:29;;;;;;;;;;;;;;;16.59;50.36;99710.25;4496478;31;33808;-90
2022/11/08 09:52:57;;;;;;;;;;;;;;;15.63;51.79;99706.84;4509355;31;34453;-87
2022/11/08 09:55:25;;;;;;;;;;;;;;;14.94;52.58;99706.69;4500152;31;34497;-90
2022/11/08 09:58:22;;;;;;;;;;;;;;;14.05;55.92;99716.59;4498794;31;33274;-90
2022/11/08 10:00:49;;;;;;;;;;;;;;;15.10;53.33;99707.59;4492432;31;34209;-89
2022/11/08 10:03:17;;;;;;;;;;;;;;;14.95;53.19;99708.44;4500031;31;34536;-88
2022/11/08 10:05:51;;;;;;;;;;;;;;;15.45;52.32;99705.06;4499701;31;34162;-88
2022/11/08 10:08:25;;;;;;;;;;;;;;;16.18;50.76;99704.25;4499981;31;33350;-87
2022/11/08 10:10:56;;;;;;;;;;;;;;;16.41;50.11;99701.59;4498571;31;33926;-87
2022/11/08 10:13:38;;;;;;;;;;;;;;;16.23;50.73;99701.63;4500016;31;34208;-92
2022/11/08 10:16:08;;;;;;;;;;;;;;;16.99;49.02;99695.31;4498602;31;34190;-87
2022/11/08 10:18:50;;;;;;;;;;;;;;;15.39;51.83;99693.75;4499852;31;33470;-87
2022/11/08 10:21:17;;;;;;;;;;;;;;;15.38;51.74;99692.00;4499972;31;34033;-89
2022/11/08 10:23:46;;;;;;;;;;;;;;;16.39;50.23;99687.63;4498324;31;33194;-91
2022/11/08 10:26:15;;;;;;;;;;;;;;;16.77;49.16;99689.28;4498555;31;34120;-91
2022/11/08 10:28:46;;;;;;;;;;;;;;;17.19;47.84;99687.34;4498480;31;34037;-90
2022/11/08 10:31:13;;;;;;;;;;;;;;;17.39;47.35;99680.25;4499648;31;33990;-91
2022/11/08 10:33:51;;;;;;;;;;;;;;;15.72;50.77;99687.69;4498466;31;35155;-91
2022/11/08 10:36:26;;;;;;;;;;;;;;;15.54;52.24;99688.56;4498178;31;34118;-86
2022/11/08 10:39:00;;;;;;;;;;;;;;;16.50;50.02;99685.84;4498553;31;33905;-87
2022/11/08 10:41:30;;;;;;;;;;;;;;;15.49;52.20;99680.72;4499530;31;34029;-88
2022/11/08 10:43:59;;;;;;;;;;;;;;;15.89;51.89;99670.28;4498068;31;35117;-89
2022/11/08 10:46:35;;;;;;;;;;;;;;;16.05;51.56;99666.78;4498525;31;34109;-89
2022/11/08 10:49:12;;;;;;;;;;;;;;;15.88;51.96;99665.94;4485375;31;31712;-90
2022/11/08 10:51:39;;;;;;;;;;;;;;;16.37;50.64;99663.22;4499708;31;34192;-91
2022/11/08 10:54:07;;;;;;;;;;;;;;;15.58;52.44;99662.41;4498266;31;34144;-87
2022/11/08 10:56:51;;;;;;;;;;;;;;;15.78;51.80;99656.34;4498614;31;33945;-87
2022/11/08 10:59:29;;;;;;;;;;;;;;;16.35;51.11;99654.50;4485319;31;33981;-87
2022/11/08 11:01:56;;;;;;;;;;;;;;;15.45;52.71;99663.25;4499637;31;34993;-87
2022/11/08 11:04:31;;;;;;;;;;;;;;;14.33;55.94;99675.06;4499092;31;34527;-90
2022/11/08 11:07:01;;;;;;;;;;;;;;;14.30;56.56;99669.81;4497498;31;34648;-89
2022/11/08 11:09:29;;;;;;;;;;;;;;;14.00;57.70;99667.88;4499628;31;33171;-87
2022/11/08 11:11:57;;;;;;;;;;;;;;;14.95;54.75;99671.00;4499612;31;33846;-87
2022/11/08 11:14:24;;;;;;;;;;;;;;;14.07;57.58;99673.16;4499544;31;35360;-90
2022/11/08 11:16:55;;;;;;;;;;;;;;;13.94;57.42;99676.56;4499442;31;34838;-86
2022/11/08 11:19:23;;;;;;;;;;;;;;;14.32;56.69;99678.53;4499195;31;33247;-90
2022/11/08 11:21:53;;;;;;;;;;;;;;;13.18;59.55;99671.47;4498142;31;35106;-89
2022/11/08 11:24:21;;;;;;;;;;;;;;;14.05;57.61;99672.28;4485056;31;35131;-90
2022/11/08 11:27:00;;;;;;;;;;;;;;;14.97;55.54;99664.94;4497948;31;34895;-89
2022/11/08 11:29:27;;;;;;;;;;;;;;;14.12;57.56;99663.63;4498237;31;34042;-90
2022/11/08 11:31:54;;;;;;;;;;;;;;;14.87;55.33;99657.06;4499460;31;33628;-87
2022/11/08 11:34:31;;;;;;;;;;;;;;;13.95;57.88;99667.88;4497996;31;34693;-89
2022/11/08 11:37:02;;;;;;;;;;;;;;;13.63;58.90;99671.06;4499429;31;34844;-89
2022/11/08 11:39:29;;;;;;;;;;;;;;;14.19;57.40;99671.50;4497958;31;33518;-90
2022/11/08 11:42:08;;;;;;;;;;;;;;;13.56;59.36;99664.09;4499393;31;35030;-88
2022/11/08 11:45:02;;;;;;;;;;;;;;;14.92;55.81;99650.09;4498477;31;34032;-89
2022/11/08 11:47:34;;;;;;;;;;;;;;;14.80;56.17;99651.81;4497873;31;34045;-87
2022/11/08 11:50:04;;;;;;;;;;;;;;;15.54;54.26;99645.00;4498401;31;33438;-89
2022/11/08 11:52:32;;;;;;;;;;;;;;;14.12;58.18;99662.75;4498242;31;34209;-87
2022/11/08 11:54:59;;;;;;;;;;;;;;;14.87;56.27;99655.31;4499194;31;35251;-91
2022/11/08 11:57:32;;;;;;;;;;;;;;;15.85;53.48;99650.25;4484715;31;33665;-87
2022/11/08 12:00:04;;;;;;;;;;;;;;;15.19;55.19;99654.50;4499175;31;33273;-89
2022/11/08 12:02:52;;;;;;;;;;;;;;;14.84;56.14;99650.94;4484640;31;33224;-88
2022/11/08 12:05:27;;;;;;;;;;;;;;;15.26;55.17;99644.09;4499130;31;34260;-90
2022/11/08 12:07:57;;;;;;;;;;;;;;;14.96;56.52;99636.19;4498930;31;34293;-88
2022/11/08 12:10:27;;;;;;;;;;;;;;;14.41;58.55;99642.06;4499093;31;33489;-87
2022/11/08 12:12:59;;;;;;;;;;;;;;;14.55;58.81;99630.00;4499103;31;35088;-87
2022/11/08 12:15:47;;;;;;;;;;;;;;;15.24;56.65;99632.78;4497570;31;34888;-87
2022/11/08 12:18:33;;;;;;;;;;;;;;;15.20;57.37;99630.16;4498598;31;33395;-87
2022/11/08 12:21:22;;;;;;;;;;;;;;;15.21;57.64;99631.91;4499054;31;33017;-89
2022/11/08 12:23:51;;;;;;;;;;;;;;;15.63;56.55;99619.72;4499210;31;34321;-90
2022/11/08 12:26:19;;;;;;;;;;;;;;;16.24;54.32;99620.50;4498929;31;34448;-91
2022/11/08 12:28:55;;;;;;;;;;;;;;;14.78;58.81;99621.38;4498670;31;34500;-88
2022/11/08 12:31:24;;;;;;;;;;;;;;;14.82;58.70;99620.50;4498759;31;33449;-91
2022/11/08 12:33:51;;;;;;;;;;;;;;;15.88;55.86;99611.03;4497566;31;34101;-91
2022/11/08 12:36:33;;;;;;;;;;;;;;;15.98;55.58;99612.72;4498711;31;34105;-91
2022/11/08 12:39:00;;;;;;;;;;;;;;;15.91;55.83;99605.81;4498868;31;34992;-90
2022/11/08 12:41:37;;;;;;;;;;;;;;;15.73;56.56;99601.47;4499039;31;33836;-89
2022/11/08 12:44:22;;;;;;;;;;;;;;;15.58;56.65;99597.09;4498344;31;34867;-91
2022/11/08 12:46:59;;;;;;;;;;;;;;;16.15;55.89;99598.75;4498316;31;35334;-91
2022/11/08 12:49:31;;;;;;;;;;;;;;;16.56;54.35;99589.91;4498587;31;34409;-87
2022/11/08 12:52:22;;;;;;;;;;;;;;;16.82;53.68;99597.63;4497232;31;33048;-89
2022/11/08 12:54:52;;;;;;;;;;;;;;;16.48;54.70;99590.78;4498354;31;35064;-91
2022/11/08 12:57:26;;;;;;;;;;;;;;;16.18;55.66;99594.41;4496969;31;35001;-90
2022/11/08 12:59:59;;;;;;;;;;;;;;;16.93;53.73;99587.94;4497058;31;34421;-90
2022/11/08 13:02:27;;;;;;;;;;;;;;;17.49;52.29;99587.53;4498277;31;33551;-88
2022/11/08 13:04:55;;;;;;;;;;;;;;;17.59;52.03;99590.09;4497314;31;34539;-91
2022/11/08 13:07:40;;;;;;;;;;;;;;;17.86;51.25;99584.59;4498563;31;34014;-87
2022/11/08 13:10:22;;;;;;;;;;;;;;;17.55;52.02;99581.37;4498333;31;33983;-89
2022/11/08 13:13:07;;;;;;;;;;;;;;;18.22;50.31;99579.84;4497040;31;34306;-87
2022/11/08 13:15:34;;;;;;;;;;;;;;;17.36;52.33;99575.44;4496892;31;34279;-87
2022/11/08 13:18:10;;;;;;;;;;;;;;;17.24;53.15;99586.00;4498187;31;34104;-91
2022/11/08 13:20:41;;;;;;;;;;;;;;;17.88;51.65;99576.72;4498151;31;33767;-87
2022/11/08 13:23:11;;;;;;;;;;;;;;;17.89;51.63;99583.72;4498413;31;33481;-89
2022/11/08 13:25:39;;;;;;;;;;;;;;;17.23;53.40;99581.63;4498002;31;33980;-87
2022/11/08 13:28:25;;;;;;;;;;;;;;;17.31;53.69;99579.81;4496658;31;35214;-89
2022/11/08 13:30:55;;;;;;;;;;;;;;;17.96;51.46;99575.75;4500250;31;33837;-88
2022/11/08 13:33:26;;;;;;;;;;;;;;;17.71;52.09;99582.09;4500249;31;33109;-91
2022/11/08 13:35:56;;;;;;;;;;;;;;;18.02;51.21;99572.19;4499012;31;34280;-91
2022/11/08 13:38:29;;;;;;;;;;;;;;;17.77;52.17;99576.84;4499980;31;35186;-91
2022/11/08 13:41:05;;;;;;;;;;;;;;;17.46;53.24;99584.97;4500227;31;34103;-87
2022/11/08 13:43:33;;;;;;;;;;;;;;;17.95;51.90;99571.38;4499890;31;34182;-91
2022/11/08 13:46:19;;;;;;;;;;;;;;;18.29;51.18;99570.12;4498889;31;35010;-91